sensor_id;sensor_type;location;lat;lon;timestamp;temperature;humidity
44817;DHT22;30529;53.570;9.964;2023-08-08T00:00:01;13.90;99.90
44817;DHT22;30529;53.570;9.964;2023-08-08T00:02:27;13.80;99.90
44817;DHT22;30529;53.570;9.964;2023-08-08T00:09:12;13.80;99.90
44817;DHT22;30529;53.570;9.964;2023-08-08T00:11:38;13.80;99.90
44817;DHT22;30529;53.570;9.964;2023-08-08T00:14:04;13.80;99.90
44817;DHT22;30529;53.570;9.964;2023-08-08T00:16:30;13.80;99.90
44817;DHT22;30529;53.570;9.964;2023-08-08T00:18:56;13.70;99.90
44817;DHT22;30529;53.570;9.964;2023-08-08T00:21:37;13.70;99.90
44817;DHT22;30529;53.570;9.964;2023-08-08T00:27:51;13.60;99.90
44817;DHT22;30529;53.570;9.964;2023-08-08T00:30:17;13.60;99.90
44817;DHT22;30529;53.570;9.964;2023-08-08T00:36:30;13.50;99.90
44817;DHT22;30529;53.570;9.964;2023-08-08T00:38:56;13.50;99.90
44817;DHT22;30529;53.570;9.964;2023-08-08T00:41:22;13.50;99.90
44817;DHT22;30529;53.570;9.964;2023-08-08T00:43:48;13.50;99.90
44817;DHT22;30529;53.570;9.964;2023-08-08T00:56:48;13.20;99.90
44817;DHT22;30529;53.570;9.964;2023-08-08T00:59:15;13.10;99.90
44817;DHT22;30529;53.570;9.964;2023-08-08T01:01:44;13.10;99.90
44817;DHT22;30529;53.570;9.964;2023-08-08T01:04:13;13.10;99.90
44817;DHT22;30529;53.570;9.964;2023-08-08T01:09:39;13.20;99.90
44817;DHT22;30529;53.570;9.964;2023-08-08T01:15:55;13.10;99.90
44817;DHT22;30529;53.570;9.964;2023-08-08T01:18:23;13.10;99.90
44817;DHT22;30529;53.570;9.964;2023-08-08T01:20:50;13.10;99.90
44817;DHT22;30529;53.570;9.964;2023-08-08T01:25:53;13.20;99.90
44817;DHT22;30529;53.570;9.964;2023-08-08T01:28:23;13.20;99.90
44817;DHT22;30529;53.570;9.964;2023-08-08T01:30:50;13.10;99.90
44817;DHT22;30529;53.570;9.964;2023-08-08T01:33:16;13.10;99.90
44817;DHT22;30529;53.570;9.964;2023-08-08T01:35:53;13.20;99.90
44817;DHT22;30529;53.570;9.964;2023-08-08T01:38:25;13.20;99.90
44817;DHT22;30529;53.570;9.964;2023-08-08T01:40:52;13.20;99.90
44817;DHT22;30529;53.570;9.964;2023-08-08T01:43:30;13.20;99.90
44817;DHT22;30529;53.570;9.964;2023-08-08T01:45:56;13.10;99.90
44817;DHT22;30529;53.570;9.964;2023-08-08T01:48:23;13.10;99.90
44817;DHT22;30529;53.570;9.964;2023-08-08T01:50:49;13.10;99.90
44817;DHT22;30529;53.570;9.964;2023-08-08T01:53:15;13.00;99.90
44817;DHT22;30529;53.570;9.964;2023-08-08T01:55:41;13.10;99.90
44817;DHT22;30529;53.570;9.964;2023-08-08T01:58:07;13.00;99.90
44817;DHT22;30529;53.570;9.964;2023-08-08T02:00:33;13.00;99.90
44817;DHT22;30529;53.570;9.964;2023-08-08T02:02:59;13.00;99.90
44817;DHT22;30529;53.570;9.964;2023-08-08T02:05:26;13.00;99.90
44817;DHT22;30529;53.570;9.964;2023-08-08T02:07:52;12.90;99.90
44817;DHT22;30529;53.570;9.964;2023-08-08T02:10:18;12.90;99.90
44817;DHT22;30529;53.570;9.964;2023-08-08T02:12:44;13.00;99.90
44817;DHT22;30529;53.570;9.964;2023-08-08T02:15:10;13.00;99.90
44817;DHT22;30529;53.570;9.964;2023-08-08T02:17:39;13.00;99.90
44817;DHT22;30529;53.570;9.964;2023-08-08T02:20:06;13.10;99.90
44817;DHT22;30529;53.570;9.964;2023-08-08T02:22:33;13.10;99.90
44817;DHT22;30529;53.570;9.964;2023-08-08T02:32:49;13.00;99.90
44817;DHT22;30529;53.570;9.964;2023-08-08T02:35:15;13.00;99.90
44817;DHT22;30529;53.570;9.964;2023-08-08T02:37:44;13.00;99.90
44817;DHT22;30529;53.570;9.964;2023-08-08T02:40:10;13.10;99.90
44817;DHT22;30529;53.570;9.964;2023-08-08T02:42:36;13.10;99.90
44817;DHT22;30529;53.570;9.964;2023-08-08T02:45:02;13.20;99.90
44817;DHT22;30529;53.570;9.964;2023-08-08T02:47:28;13.10;99.90
44817;DHT22;30529;53.570;9.964;2023-08-08T02:49:54;13.10;99.90
44817;DHT22;30529;53.570;9.964;2023-08-08T02:52:20;13.00;99.90
44817;DHT22;30529;53.570;9.964;2023-08-08T02:54:47;12.90;99.90
44817;DHT22;30529;53.570;9.964;2023-08-08T02:57:13;12.90;99.90
44817;DHT22;30529;53.570;9.964;2023-08-08T02:59:39;12.90;99.90
44817;DHT22;30529;53.570;9.964;2023-08-08T03:02:05;13.00;99.90
44817;DHT22;30529;53.570;9.964;2023-08-08T03:04:31;13.00;99.90
44817;DHT22;30529;53.570;9.964;2023-08-08T03:06:57;13.10;99.90
44817;DHT22;30529;53.570;9.964;2023-08-08T03:09:23;13.20;99.90
44817;DHT22;30529;53.570;9.964;2023-08-08T03:11:49;13.10;99.90
44817;DHT22;30529;53.570;9.964;2023-08-08T03:14:15;13.10;99.90
44817;DHT22;30529;53.570;9.964;2023-08-08T03:16:41;13.20;99.90
44817;DHT22;30529;53.570;9.964;2023-08-08T03:19:08;13.20;99.90
44817;DHT22;30529;53.570;9.964;2023-08-08T03:21:34;13.20;99.90
44817;DHT22;30529;53.570;9.964;2023-08-08T03:24:00;13.10;99.90
44817;DHT22;30529;53.570;9.964;2023-08-08T03:26:26;13.10;99.90
44817;DHT22;30529;53.570;9.964;2023-08-08T03:32:06;13.10;99.90
44817;DHT22;30529;53.570;9.964;2023-08-08T03:34:32;13.20;99.90
44817;DHT22;30529;53.570;9.964;2023-08-08T03:36:59;13.10;99.90
44817;DHT22;30529;53.570;9.964;2023-08-08T03:39:25;13.10;99.90
44817;DHT22;30529;53.570;9.964;2023-08-08T03:41:52;13.20;99.90
44817;DHT22;30529;53.570;9.964;2023-08-08T03:44:18;13.20;99.90
44817;DHT22;30529;53.570;9.964;2023-08-08T03:49:55;13.20;99.90
44817;DHT22;30529;53.570;9.964;2023-08-08T03:52:24;13.10;99.90
44817;DHT22;30529;53.570;9.964;2023-08-08T03:54:51;13.20;99.90
44817;DHT22;30529;53.570;9.964;2023-08-08T03:57:17;13.20;99.90
44817;DHT22;30529;53.570;9.964;2023-08-08T03:59:43;13.20;99.90
44817;DHT22;30529;53.570;9.964;2023-08-08T04:02:09;13.20;99.90
44817;DHT22;30529;53.570;9.964;2023-08-08T04:04:35;13.20;99.90
44817;DHT22;30529;53.570;9.964;2023-08-08T04:07:01;13.20;99.90
44817;DHT22;30529;53.570;9.964;2023-08-08T04:09:27;13.20;99.90
44817;DHT22;30529;53.570;9.964;2023-08-08T04:11:53;13.20;99.90
44817;DHT22;30529;53.570;9.964;2023-08-08T04:14:19;13.10;99.90
44817;DHT22;30529;53.570;9.964;2023-08-08T04:16:45;13.10;99.90
44817;DHT22;30529;53.570;9.964;2023-08-08T04:19:11;13.20;99.90
44817;DHT22;30529;53.570;9.964;2023-08-08T04:21:37;13.10;99.90
44817;DHT22;30529;53.570;9.964;2023-08-08T04:27:50;13.00;99.90
44817;DHT22;30529;53.570;9.964;2023-08-08T04:30:17;13.00;99.90
44817;DHT22;30529;53.570;9.964;2023-08-08T04:32:43;12.90;99.90
44817;DHT22;30529;53.570;9.964;2023-08-08T04:39:14;12.90;99.90
44817;DHT22;30529;53.570;9.964;2023-08-08T04:41:40;12.90;99.90
44817;DHT22;30529;53.570;9.964;2023-08-08T04:44:06;12.90;99.90
44817;DHT22;30529;53.570;9.964;2023-08-08T04:46:32;13.00;99.90
44817;DHT22;30529;53.570;9.964;2023-08-08T04:48:58;13.00;99.90
44817;DHT22;30529;53.570;9.964;2023-08-08T04:51:25;13.00;99.90
44817;DHT22;30529;53.570;9.964;2023-08-08T04:53:51;13.00;99.90
44817;DHT22;30529;53.570;9.964;2023-08-08T04:56:17;13.00;99.90
44817;DHT22;30529;53.570;9.964;2023-08-08T04:58:43;13.10;99.90
44817;DHT22;30529;53.570;9.964;2023-08-08T05:01:09;13.30;99.90
44817;DHT22;30529;53.570;9.964;2023-08-08T05:03:40;13.40;99.90
44817;DHT22;30529;53.570;9.964;2023-08-08T05:06:06;13.40;99.90
44817;DHT22;30529;53.570;9.964;2023-08-08T05:08:32;13.60;99.90
44817;DHT22;30529;53.570;9.964;2023-08-08T05:10:58;13.70;99.90
44817;DHT22;30529;53.570;9.964;2023-08-08T05:13:24;13.80;99.90
44817;DHT22;30529;53.570;9.964;2023-08-08T05:15:50;14.00;99.90
44817;DHT22;30529;53.570;9.964;2023-08-08T05:18:17;14.20;99.90
44817;DHT22;30529;53.570;9.964;2023-08-08T05:20:43;14.30;99.90
44817;DHT22;30529;53.570;9.964;2023-08-08T05:23:09;14.70;99.90
44817;DHT22;30529;53.570;9.964;2023-08-08T05:25:38;14.90;99.90
44817;DHT22;30529;53.570;9.964;2023-08-08T05:28:04;15.00;99.90
44817;DHT22;30529;53.570;9.964;2023-08-08T05:30:31;15.10;99.90
44817;DHT22;30529;53.570;9.964;2023-08-08T05:32:57;15.30;99.90
44817;DHT22;30529;53.570;9.964;2023-08-08T05:35:23;15.50;99.90
44817;DHT22;30529;53.570;9.964;2023-08-08T05:37:49;15.40;99.90
44817;DHT22;30529;53.570;9.964;2023-08-08T05:40:15;15.50;99.90
44817;DHT22;30529;53.570;9.964;2023-08-08T05:42:41;15.60;99.90
44817;DHT22;30529;53.570;9.964;2023-08-08T05:45:08;15.90;99.90
44817;DHT22;30529;53.570;9.964;2023-08-08T05:47:34;16.10;99.90
44817;DHT22;30529;53.570;9.964;2023-08-08T05:50:00;16.10;99.90
44817;DHT22;30529;53.570;9.964;2023-08-08T05:52:26;16.10;99.90
44817;DHT22;30529;53.570;9.964;2023-08-08T05:54:52;15.90;99.90
44817;DHT22;30529;53.570;9.964;2023-08-08T05:57:18;16.00;99.90
44817;DHT22;30529;53.570;9.964;2023-08-08T05:59:44;15.80;99.90
44817;DHT22;30529;53.570;9.964;2023-08-08T06:02:11;15.70;99.90
44817;DHT22;30529;53.570;9.964;2023-08-08T06:04:37;15.70;99.90
44817;DHT22;30529;53.570;9.964;2023-08-08T06:07:03;15.70;99.90
44817;DHT22;30529;53.570;9.964;2023-08-08T06:09:29;15.70;99.90
44817;DHT22;30529;53.570;9.964;2023-08-08T06:11:57;15.50;99.90
44817;DHT22;30529;53.570;9.964;2023-08-08T06:14:23;15.60;99.90
44817;DHT22;30529;53.570;9.964;2023-08-08T06:16:49;15.50;99.90
44817;DHT22;30529;53.570;9.964;2023-08-08T06:19:15;15.30;99.90
44817;DHT22;30529;53.570;9.964;2023-08-08T06:21:42;15.20;99.90
44817;DHT22;30529;53.570;9.964;2023-08-08T06:24:08;15.00;99.90
44817;DHT22;30529;53.570;9.964;2023-08-08T06:26:34;15.00;99.90
44817;DHT22;30529;53.570;9.964;2023-08-08T06:29:00;15.00;99.90
44817;DHT22;30529;53.570;9.964;2023-08-08T06:31:26;15.20;99.90
44817;DHT22;30529;53.570;9.964;2023-08-08T06:33:52;15.60;99.90
44817;DHT22;30529;53.570;9.964;2023-08-08T06:36:19;16.00;99.90
44817;DHT22;30529;53.570;9.964;2023-08-08T06:38:45;16.00;99.90
44817;DHT22;30529;53.570;9.964;2023-08-08T06:41:11;16.00;99.90
44817;DHT22;30529;53.570;9.964;2023-08-08T06:43:37;15.80;99.90
44817;DHT22;30529;53.570;9.964;2023-08-08T06:46:03;15.70;99.90
44817;DHT22;30529;53.570;9.964;2023-08-08T06:48:30;15.40;99.90
44817;DHT22;30529;53.570;9.964;2023-08-08T06:50:56;15.20;99.90
44817;DHT22;30529;53.570;9.964;2023-08-08T06:53:23;15.20;99.90
44817;DHT22;30529;53.570;9.964;2023-08-08T06:55:49;15.20;99.90
44817;DHT22;30529;53.570;9.964;2023-08-08T06:58:15;15.50;99.90
44817;DHT22;30529;53.570;9.964;2023-08-08T07:00:41;15.90;99.90
44817;DHT22;30529;53.570;9.964;2023-08-08T07:03:07;16.00;99.90
44817;DHT22;30529;53.570;9.964;2023-08-08T07:05:33;16.20;99.90
44817;DHT22;30529;53.570;9.964;2023-08-08T07:07:59;16.20;99.90
44817;DHT22;30529;53.570;9.964;2023-08-08T07:10:25;16.10;99.90
44817;DHT22;30529;53.570;9.964;2023-08-08T07:12:52;15.90;99.90
44817;DHT22;30529;53.570;9.964;2023-08-08T07:15:19;16.00;99.90
44817;DHT22;30529;53.570;9.964;2023-08-08T07:17:45;16.20;99.90
44817;DHT22;30529;53.570;9.964;2023-08-08T07:20:11;16.40;99.90
44817;DHT22;30529;53.570;9.964;2023-08-08T07:22:39;16.30;99.90
44817;DHT22;30529;53.570;9.964;2023-08-08T07:25:06;16.10;99.90
44817;DHT22;30529;53.570;9.964;2023-08-08T07:27:32;15.90;99.90
44817;DHT22;30529;53.570;9.964;2023-08-08T07:29:58;15.80;99.90
44817;DHT22;30529;53.570;9.964;2023-08-08T07:32:24;15.70;99.90
44817;DHT22;30529;53.570;9.964;2023-08-08T07:34:51;15.70;99.90
44817;DHT22;30529;53.570;9.964;2023-08-08T07:37:17;15.80;99.90
44817;DHT22;30529;53.570;9.964;2023-08-08T07:39:44;15.80;99.90
44817;DHT22;30529;53.570;9.964;2023-08-08T07:42:10;15.80;99.90
44817;DHT22;30529;53.570;9.964;2023-08-08T07:44:36;15.90;99.90
44817;DHT22;30529;53.570;9.964;2023-08-08T07:47:04;16.20;99.90
44817;DHT22;30529;53.570;9.964;2023-08-08T07:49:30;16.50;99.90
44817;DHT22;30529;53.570;9.964;2023-08-08T07:51:56;17.00;99.90
44817;DHT22;30529;53.570;9.964;2023-08-08T07:54:23;17.40;99.90
44817;DHT22;30529;53.570;9.964;2023-08-08T07:56:49;17.70;99.90
44817;DHT22;30529;53.570;9.964;2023-08-08T07:59:15;17.80;99.90
44817;DHT22;30529;53.570;9.964;2023-08-08T08:01:42;17.60;99.90
44817;DHT22;30529;53.570;9.964;2023-08-08T08:04:08;17.40;99.90
44817;DHT22;30529;53.570;9.964;2023-08-08T08:06:35;17.50;99.90
44817;DHT22;30529;53.570;9.964;2023-08-08T08:09:01;17.50;99.90
44817;DHT22;30529;53.570;9.964;2023-08-08T08:11:27;17.60;99.90
44817;DHT22;30529;53.570;9.964;2023-08-08T08:13:53;17.70;99.90
44817;DHT22;30529;53.570;9.964;2023-08-08T08:16:20;17.80;99.90
44817;DHT22;30529;53.570;9.964;2023-08-08T08:18:46;17.40;99.90
44817;DHT22;30529;53.570;9.964;2023-08-08T08:21:14;17.20;99.90
44817;DHT22;30529;53.570;9.964;2023-08-08T08:23:40;17.20;99.90
44817;DHT22;30529;53.570;9.964;2023-08-08T08:26:06;17.30;99.90
44817;DHT22;30529;53.570;9.964;2023-08-08T08:28:33;17.40;99.90
44817;DHT22;30529;53.570;9.964;2023-08-08T08:31:07;17.50;99.90
44817;DHT22;30529;53.570;9.964;2023-08-08T08:33:33;17.60;99.90
44817;DHT22;30529;53.570;9.964;2023-08-08T08:36:00;17.60;99.90
44817;DHT22;30529;53.570;9.964;2023-08-08T08:38:26;17.50;99.90
44817;DHT22;30529;53.570;9.964;2023-08-08T08:40:54;17.30;99.90
44817;DHT22;30529;53.570;9.964;2023-08-08T08:43:21;17.20;99.90
44817;DHT22;30529;53.570;9.964;2023-08-08T08:45:51;17.00;99.90
44817;DHT22;30529;53.570;9.964;2023-08-08T08:48:18;16.90;99.90
44817;DHT22;30529;53.570;9.964;2023-08-08T08:50:48;16.80;99.90
44817;DHT22;30529;53.570;9.964;2023-08-08T08:53:15;16.90;99.90
44817;DHT22;30529;53.570;9.964;2023-08-08T08:55:44;17.20;99.90
44817;DHT22;30529;53.570;9.964;2023-08-08T08:58:12;17.50;99.90
44817;DHT22;30529;53.570;9.964;2023-08-08T09:00:39;17.60;99.90
44817;DHT22;30529;53.570;9.964;2023-08-08T09:03:06;17.80;99.90
44817;DHT22;30529;53.570;9.964;2023-08-08T09:05:33;17.70;99.90
44817;DHT22;30529;53.570;9.964;2023-08-08T09:07:59;17.60;99.90
44817;DHT22;30529;53.570;9.964;2023-08-08T09:10:26;17.40;99.90
44817;DHT22;30529;53.570;9.964;2023-08-08T09:12:53;17.20;99.90
44817;DHT22;30529;53.570;9.964;2023-08-08T09:15:20;17.20;99.90
44817;DHT22;30529;53.570;9.964;2023-08-08T09:17:46;17.10;99.90
44817;DHT22;30529;53.570;9.964;2023-08-08T09:20:13;17.40;99.90
44817;DHT22;30529;53.570;9.964;2023-08-08T09:22:39;17.60;99.90
44817;DHT22;30529;53.570;9.964;2023-08-08T09:25:06;17.70;99.90
44817;DHT22;30529;53.570;9.964;2023-08-08T09:27:34;17.60;99.90
44817;DHT22;30529;53.570;9.964;2023-08-08T09:30:01;17.60;99.90
44817;DHT22;30529;53.570;9.964;2023-08-08T09:32:32;17.60;99.90
44817;DHT22;30529;53.570;9.964;2023-08-08T09:34:59;17.70;99.90
44817;DHT22;30529;53.570;9.964;2023-08-08T09:37:26;17.60;99.90
44817;DHT22;30529;53.570;9.964;2023-08-08T09:40:01;17.50;99.90
44817;DHT22;30529;53.570;9.964;2023-08-08T09:42:29;17.40;99.90
44817;DHT22;30529;53.570;9.964;2023-08-08T09:44:59;17.20;99.90
44817;DHT22;30529;53.570;9.964;2023-08-08T09:47:26;17.00;99.90
44817;DHT22;30529;53.570;9.964;2023-08-08T09:50:01;16.90;99.90
44817;DHT22;30529;53.570;9.964;2023-08-08T09:52:28;16.90;99.90
44817;DHT22;30529;53.570;9.964;2023-08-08T09:54:55;16.90;99.90
44817;DHT22;30529;53.570;9.964;2023-08-08T09:57:22;16.80;99.90
44817;DHT22;30529;53.570;9.964;2023-08-08T09:59:48;16.70;99.90
44817;DHT22;30529;53.570;9.964;2023-08-08T10:02:15;16.60;99.90
44817;DHT22;30529;53.570;9.964;2023-08-08T10:04:42;16.50;99.90
44817;DHT22;30529;53.570;9.964;2023-08-08T10:07:08;16.40;99.90
44817;DHT22;30529;53.570;9.964;2023-08-08T10:09:35;16.30;99.90
44817;DHT22;30529;53.570;9.964;2023-08-08T10:12:07;16.10;99.90
44817;DHT22;30529;53.570;9.964;2023-08-08T10:14:36;16.00;99.90
44817;DHT22;30529;53.570;9.964;2023-08-08T10:17:06;16.00;99.90
44817;DHT22;30529;53.570;9.964;2023-08-08T10:19:33;16.00;99.90
44817;DHT22;30529;53.570;9.964;2023-08-08T10:22:03;16.10;99.90
44817;DHT22;30529;53.570;9.964;2023-08-08T10:24:34;16.20;99.90
44817;DHT22;30529;53.570;9.964;2023-08-08T10:27:02;16.30;99.90
44817;DHT22;30529;53.570;9.964;2023-08-08T10:29:30;16.30;99.90
44817;DHT22;30529;53.570;9.964;2023-08-08T10:32:05;16.10;99.90
44817;DHT22;30529;53.570;9.964;2023-08-08T10:34:43;16.10;99.90
44817;DHT22;30529;53.570;9.964;2023-08-08T10:37:12;16.10;99.90
44817;DHT22;30529;53.570;9.964;2023-08-08T10:39:57;16.20;99.90
44817;DHT22;30529;53.570;9.964;2023-08-08T10:42:25;16.50;99.90
44817;DHT22;30529;53.570;9.964;2023-08-08T10:44:57;16.80;99.90
44817;DHT22;30529;53.570;9.964;2023-08-08T10:47:30;16.80;99.90
44817;DHT22;30529;53.570;9.964;2023-08-08T10:52:58;16.60;99.90
44817;DHT22;30529;53.570;9.964;2023-08-08T10:55:30;16.70;99.90
44817;DHT22;30529;53.570;9.964;2023-08-08T10:58:06;16.50;99.90
44817;DHT22;30529;53.570;9.964;2023-08-08T11:00:35;16.30;99.90
44817;DHT22;30529;53.570;9.964;2023-08-08T11:03:02;16.30;99.90
44817;DHT22;30529;53.570;9.964;2023-08-08T11:05:32;16.30;99.90
44817;DHT22;30529;53.570;9.964;2023-08-08T11:08:00;16.50;99.90
44817;DHT22;30529;53.570;9.964;2023-08-08T11:10:27;16.70;99.90
44817;DHT22;30529;53.570;9.964;2023-08-08T11:13:04;16.90;99.90
44817;DHT22;30529;53.570;9.964;2023-08-08T11:15:35;16.90;99.90
44817;DHT22;30529;53.570;9.964;2023-08-08T11:18:02;16.70;99.90
44817;DHT22;30529;53.570;9.964;2023-08-08T11:20:31;16.70;99.90
44817;DHT22;30529;53.570;9.964;2023-08-08T11:22:58;16.60;99.90
44817;DHT22;30529;53.570;9.964;2023-08-08T11:25:27;16.50;99.90
44817;DHT22;30529;53.570;9.964;2023-08-08T11:27:54;16.20;99.90
44817;DHT22;30529;53.570;9.964;2023-08-08T11:30:21;16.10;99.90
44817;DHT22;30529;53.570;9.964;2023-08-08T11:32:49;16.00;99.90
44817;DHT22;30529;53.570;9.964;2023-08-08T11:35:22;15.80;99.90
44817;DHT22;30529;53.570;9.964;2023-08-08T11:37:50;15.70;99.90
44817;DHT22;30529;53.570;9.964;2023-08-08T11:40:17;15.60;99.90
44817;DHT22;30529;53.570;9.964;2023-08-08T11:42:44;15.70;99.90
44817;DHT22;30529;53.570;9.964;2023-08-08T11:45:13;16.00;99.90
44817;DHT22;30529;53.570;9.964;2023-08-08T11:47:40;16.30;99.90
44817;DHT22;30529;53.570;9.964;2023-08-08T11:50:08;16.70;99.90
44817;DHT22;30529;53.570;9.964;2023-08-08T11:52:38;16.90;99.90
44817;DHT22;30529;53.570;9.964;2023-08-08T11:55:06;16.90;99.90
44817;DHT22;30529;53.570;9.964;2023-08-08T11:57:35;16.70;99.90
44817;DHT22;30529;53.570;9.964;2023-08-08T12:00:06;16.50;99.90
44817;DHT22;30529;53.570;9.964;2023-08-08T12:02:33;16.60;99.90
44817;DHT22;30529;53.570;9.964;2023-08-08T12:05:11;16.50;99.90
44817;DHT22;30529;53.570;9.964;2023-08-08T12:07:38;16.60;99.90
44817;DHT22;30529;53.570;9.964;2023-08-08T12:10:15;16.80;99.90
44817;DHT22;30529;53.570;9.964;2023-08-08T12:12:45;16.80;99.90
44817;DHT22;30529;53.570;9.964;2023-08-08T12:15:12;17.10;99.90
44817;DHT22;30529;53.570;9.964;2023-08-08T12:17:39;17.30;99.90
44817;DHT22;30529;53.570;9.964;2023-08-08T12:20:07;17.40;99.90
44817;DHT22;30529;53.570;9.964;2023-08-08T12:22:34;17.10;99.90
44817;DHT22;30529;53.570;9.964;2023-08-08T12:25:00;17.00;99.90
44817;DHT22;30529;53.570;9.964;2023-08-08T12:27:26;17.30;99.90
44817;DHT22;30529;53.570;9.964;2023-08-08T12:29:52;17.30;99.90
44817;DHT22;30529;53.570;9.964;2023-08-08T12:32:21;17.20;99.90
44817;DHT22;30529;53.570;9.964;2023-08-08T12:34:51;16.90;99.90
44817;DHT22;30529;53.570;9.964;2023-08-08T12:37:17;16.60;99.90
44817;DHT22;30529;53.570;9.964;2023-08-08T12:39:43;16.60;99.90
44817;DHT22;30529;53.570;9.964;2023-08-08T12:42:10;16.70;99.90
44817;DHT22;30529;53.570;9.964;2023-08-08T12:44:36;16.80;99.90
44817;DHT22;30529;53.570;9.964;2023-08-08T12:47:02;16.80;99.90
44817;DHT22;30529;53.570;9.964;2023-08-08T12:49:28;17.00;99.90
44817;DHT22;30529;53.570;9.964;2023-08-08T12:51:54;17.00;99.90
44817;DHT22;30529;53.570;9.964;2023-08-08T12:54:21;17.10;99.90
44817;DHT22;30529;53.570;9.964;2023-08-08T12:56:48;17.30;99.90
44817;DHT22;30529;53.570;9.964;2023-08-08T12:59:14;17.50;99.90
44817;DHT22;30529;53.570;9.964;2023-08-08T13:01:40;17.40;99.90
44817;DHT22;30529;53.570;9.964;2023-08-08T13:04:06;17.20;99.90
44817;DHT22;30529;53.570;9.964;2023-08-08T13:06:32;16.90;99.90
44817;DHT22;30529;53.570;9.964;2023-08-08T13:09:00;16.70;99.90
44817;DHT22;30529;53.570;9.964;2023-08-08T13:11:26;16.50;99.90
44817;DHT22;30529;53.570;9.964;2023-08-08T13:13:53;16.00;99.90
44817;DHT22;30529;53.570;9.964;2023-08-08T13:16:19;15.90;99.90
44817;DHT22;30529;53.570;9.964;2023-08-08T13:18:45;16.00;99.90
44817;DHT22;30529;53.570;9.964;2023-08-08T13:21:11;16.00;99.90
44817;DHT22;30529;53.570;9.964;2023-08-08T13:23:38;15.90;99.90
44817;DHT22;30529;53.570;9.964;2023-08-08T13:26:04;15.80;99.90
44817;DHT22;30529;53.570;9.964;2023-08-08T13:28:31;16.00;99.90
44817;DHT22;30529;53.570;9.964;2023-08-08T13:30:57;16.50;99.90
44817;DHT22;30529;53.570;9.964;2023-08-08T13:33:24;16.80;99.90
44817;DHT22;30529;53.570;9.964;2023-08-08T13:35:50;16.90;99.90
44817;DHT22;30529;53.570;9.964;2023-08-08T13:38:16;16.80;99.90
44817;DHT22;30529;53.570;9.964;2023-08-08T13:40:42;16.80;99.90
44817;DHT22;30529;53.570;9.964;2023-08-08T13:43:08;16.90;99.90
44817;DHT22;30529;53.570;9.964;2023-08-08T13:45:35;17.10;99.90
44817;DHT22;30529;53.570;9.964;2023-08-08T13:48:01;17.10;99.90
44817;DHT22;30529;53.570;9.964;2023-08-08T13:50:27;17.00;99.90
44817;DHT22;30529;53.570;9.964;2023-08-08T13:52:54;16.80;99.90
44817;DHT22;30529;53.570;9.964;2023-08-08T13:55:20;16.40;99.90
44817;DHT22;30529;53.570;9.964;2023-08-08T13:57:46;16.20;99.90
44817;DHT22;30529;53.570;9.964;2023-08-08T14:00:13;16.20;99.90
44817;DHT22;30529;53.570;9.964;2023-08-08T14:02:40;16.20;99.90
44817;DHT22;30529;53.570;9.964;2023-08-08T14:05:07;16.10;99.90
44817;DHT22;30529;53.570;9.964;2023-08-08T14:07:34;16.10;99.90
44817;DHT22;30529;53.570;9.964;2023-08-08T14:10:03;16.40;99.90
44817;DHT22;30529;53.570;9.964;2023-08-08T14:12:30;16.50;99.90
44817;DHT22;30529;53.570;9.964;2023-08-08T14:14:56;16.70;99.90
44817;DHT22;30529;53.570;9.964;2023-08-08T14:17:22;16.60;99.90
44817;DHT22;30529;53.570;9.964;2023-08-08T14:19:48;16.60;99.90
44817;DHT22;30529;53.570;9.964;2023-08-08T14:22:14;16.60;99.90
44817;DHT22;30529;53.570;9.964;2023-08-08T14:24:42;16.60;99.90
44817;DHT22;30529;53.570;9.964;2023-08-08T14:27:09;16.70;99.90
44817;DHT22;30529;53.570;9.964;2023-08-08T14:29:35;16.80;99.90
44817;DHT22;30529;53.570;9.964;2023-08-08T14:32:01;16.90;99.90
44817;DHT22;30529;53.570;9.964;2023-08-08T14:34:29;16.90;99.90
44817;DHT22;30529;53.570;9.964;2023-08-08T14:36:56;16.90;99.90
44817;DHT22;30529;53.570;9.964;2023-08-08T14:39:24;17.00;99.90
44817;DHT22;30529;53.570;9.964;2023-08-08T14:41:50;17.00;99.90
44817;DHT22;30529;53.570;9.964;2023-08-08T14:44:17;17.20;99.90
44817;DHT22;30529;53.570;9.964;2023-08-08T14:46:43;17.50;99.90
44817;DHT22;30529;53.570;9.964;2023-08-08T14:49:09;17.40;99.90
44817;DHT22;30529;53.570;9.964;2023-08-08T14:51:35;17.40;99.90
44817;DHT22;30529;53.570;9.964;2023-08-08T14:54:02;17.50;99.90
44817;DHT22;30529;53.570;9.964;2023-08-08T14:56:28;17.40;99.90
44817;DHT22;30529;53.570;9.964;2023-08-08T14:58:54;17.30;99.90
44817;DHT22;30529;53.570;9.964;2023-08-08T15:01:22;17.20;99.90
44817;DHT22;30529;53.570;9.964;2023-08-08T15:03:49;17.20;99.90
44817;DHT22;30529;53.570;9.964;2023-08-08T15:06:15;17.10;99.90
44817;DHT22;30529;53.570;9.964;2023-08-08T15:08:42;17.00;99.90
44817;DHT22;30529;53.570;9.964;2023-08-08T15:11:08;16.90;99.90
44817;DHT22;30529;53.570;9.964;2023-08-08T15:13:35;16.80;99.90
44817;DHT22;30529;53.570;9.964;2023-08-08T15:16:01;16.70;99.90
44817;DHT22;30529;53.570;9.964;2023-08-08T15:18:27;16.60;99.90
44817;DHT22;30529;53.570;9.964;2023-08-08T15:20:53;16.40;99.90
44817;DHT22;30529;53.570;9.964;2023-08-08T15:23:19;16.40;99.90
44817;DHT22;30529;53.570;9.964;2023-08-08T15:25:45;16.50;99.90
44817;DHT22;30529;53.570;9.964;2023-08-08T15:28:11;16.50;99.90
44817;DHT22;30529;53.570;9.964;2023-08-08T15:30:38;16.20;99.90
44817;DHT22;30529;53.570;9.964;2023-08-08T15:33:04;16.00;99.90
44817;DHT22;30529;53.570;9.964;2023-08-08T15:35:30;15.80;99.90
44817;DHT22;30529;53.570;9.964;2023-08-08T15:37:56;15.60;99.90
44817;DHT22;30529;53.570;9.964;2023-08-08T15:40:25;15.50;99.90
44817;DHT22;30529;53.570;9.964;2023-08-08T15:42:52;15.50;99.90
44817;DHT22;30529;53.570;9.964;2023-08-08T15:45:18;15.30;99.90
44817;DHT22;30529;53.570;9.964;2023-08-08T15:47:44;15.20;99.90
44817;DHT22;30529;53.570;9.964;2023-08-08T15:50:10;15.10;99.90
44817;DHT22;30529;53.570;9.964;2023-08-08T15:52:36;15.00;99.90
44817;DHT22;30529;53.570;9.964;2023-08-08T15:55:03;14.90;99.90
44817;DHT22;30529;53.570;9.964;2023-08-08T15:57:31;14.90;99.90
44817;DHT22;30529;53.570;9.964;2023-08-08T15:59:58;14.90;99.90
44817;DHT22;30529;53.570;9.964;2023-08-08T16:02:24;14.80;99.90
44817;DHT22;30529;53.570;9.964;2023-08-08T16:04:50;14.70;99.90
44817;DHT22;30529;53.570;9.964;2023-08-08T16:07:18;14.80;99.90
44817;DHT22;30529;53.570;9.964;2023-08-08T16:09:45;14.80;99.90
44817;DHT22;30529;53.570;9.964;2023-08-08T16:12:12;14.70;99.90
44817;DHT22;30529;53.570;9.964;2023-08-08T16:14:38;14.70;99.90
44817;DHT22;30529;53.570;9.964;2023-08-08T16:17:05;14.60;99.90
44817;DHT22;30529;53.570;9.964;2023-08-08T16:19:31;14.60;99.90
44817;DHT22;30529;53.570;9.964;2023-08-08T16:21:58;14.60;99.90
44817;DHT22;30529;53.570;9.964;2023-08-08T16:24:24;14.50;99.90